sensor_id;sensor_type;location;lat;lon;timestamp;P1;durP1;ratioP1;P2;durP2;ratioP2
11488;SDS011;5801;50.804;12.638;2022-09-01T00:00:22;4.28;;;2.20;;
11488;SDS011;5801;50.804;12.638;2022-09-01T00:02:53;6.80;;;2.75;;
11488;SDS011;5801;50.804;12.638;2022-09-01T00:05:19;6.43;;;1.90;;
11488;SDS011;5801;50.804;12.638;2022-09-01T00:07:45;2.38;;;2.00;;
11488;SDS011;5801;50.804;12.638;2022-09-01T00:10:11;3.00;;;2.00;;
11488;SDS011;5801;50.804;12.638;2022-09-01T00:12:37;3.25;;;2.03;;
11488;SDS011;5801;50.804;12.638;2022-09-01T00:15:04;4.97;;;2.03;;
11488;SDS011;5801;50.804;12.638;2022-09-01T00:17:30;2.25;;;1.90;;
11488;SDS011;5801;50.804;12.638;2022-09-01T00:19:56;2.28;;;1.80;;
11488;SDS011;5801;50.804;12.638;2022-09-01T00:22:22;2.20;;;1.88;;
11488;SDS011;5801;50.804;12.638;2022-09-01T00:24:48;2.97;;;2.20;;
11488;SDS011;5801;50.804;12.638;2022-09-01T00:27:14;2.42;;;1.73;;
11488;SDS011;5801;50.804;12.638;2022-09-01T00:29:40;4.70;;;1.70;;
11488;SDS011;5801;50.804;12.638;2022-09-01T00:32:06;1.80;;;1.70;;
11488;SDS011;5801;50.804;12.638;2022-09-01T00:34:31;3.10;;;1.90;;
11488;SDS011;5801;50.804;12.638;2022-09-01T00:36:57;4.30;;;1.77;;
11488;SDS011;5801;50.804;12.638;2022-09-01T00:39:23;1.88;;;1.77;;
11488;SDS011;5801;50.804;12.638;2022-09-01T00:41:49;4.07;;;1.77;;
11488;SDS011;5801;50.804;12.638;2022-09-01T00:44:16;1.85;;;1.70;;
11488;SDS011;5801;50.804;12.638;2022-09-01T00:46:44;3.63;;;1.92;;
11488;SDS011;5801;50.804;12.638;2022-09-01T00:49:12;2.85;;;1.90;;
11488;SDS011;5801;50.804;12.638;2022-09-01T00:51:39;3.88;;;2.05;;
11488;SDS011;5801;50.804;12.638;2022-09-01T00:54:08;2.05;;;1.85;;
11488;SDS011;5801;50.804;12.638;2022-09-01T00:56:38;2.28;;;2.08;;
11488;SDS011;5801;50.804;12.638;2022-09-01T00:59:05;2.38;;;1.90;;
11488;SDS011;5801;50.804;12.638;2022-09-01T01:01:33;2.20;;;1.75;;
11488;SDS011;5801;50.804;12.638;2022-09-01T01:04:06;2.15;;;1.95;;
11488;SDS011;5801;50.804;12.638;2022-09-01T01:06:38;2.38;;;2.10;;
11488;SDS011;5801;50.804;12.638;2022-09-01T01:09:04;1.80;;;1.70;;
11488;SDS011;5801;50.804;12.638;2022-09-01T01:11:30;2.47;;;1.77;;
11488;SDS011;5801;50.804;12.638;2022-09-01T01:14:02;2.53;;;2.05;;
11488;SDS011;5801;50.804;12.638;2022-09-01T01:16:35;3.17;;;2.17;;
11488;SDS011;5801;50.804;12.638;2022-09-01T01:19:01;4.18;;;2.25;;
11488;SDS011;5801;50.804;12.638;2022-09-01T01:21:34;2.28;;;2.00;;
11488;SDS011;5801;50.804;12.638;2022-09-01T01:24:30;2.50;;;1.83;;
11488;SDS011;5801;50.804;12.638;2022-09-01T01:26:58;3.38;;;2.20;;
11488;SDS011;5801;50.804;12.638;2022-09-01T01:29:34;2.80;;;1.92;;
11488;SDS011;5801;50.804;12.638;2022-09-01T01:32:04;1.98;;;1.88;;
11488;SDS011;5801;50.804;12.638;2022-09-01T01:34:36;2.90;;;2.05;;
11488;SDS011;5801;50.804;12.638;2022-09-01T01:37:04;10.10;;;1.90;;
11488;SDS011;5801;50.804;12.638;2022-09-01T01:39:30;12.80;;;2.40;;
11488;SDS011;5801;50.804;12.638;2022-09-01T01:41:56;2.42;;;2.22;;
11488;SDS011;5801;50.804;12.638;2022-09-01T01:44:23;5.90;;;2.70;;
11488;SDS011;5801;50.804;12.638;2022-09-01T01:46:52;2.50;;;2.30;;
11488;SDS011;5801;50.804;12.638;2022-09-01T01:49:19;2.75;;;2.22;;
11488;SDS011;5801;50.804;12.638;2022-09-01T01:51:48;2.88;;;2.22;;
11488;SDS011;5801;50.804;12.638;2022-09-01T01:54:16;4.53;;;2.30;;
11488;SDS011;5801;50.804;12.638;2022-09-01T01:56:43;2.85;;;2.40;;
11488;SDS011;5801;50.804;12.638;2022-09-01T01:59:09;3.97;;;2.58;;
11488;SDS011;5801;50.804;12.638;2022-09-01T02:01:39;2.58;;;2.15;;
11488;SDS011;5801;50.804;12.638;2022-09-01T02:04:07;3.38;;;2.42;;
11488;SDS011;5801;50.804;12.638;2022-09-01T02:06:35;4.60;;;2.90;;
11488;SDS011;5801;50.804;12.638;2022-09-01T02:09:05;3.28;;;2.70;;
11488;SDS011;5801;50.804;12.638;2022-09-01T02:11:31;3.63;;;3.25;;
11488;SDS011;5801;50.804;12.638;2022-09-01T02:13:58;5.97;;;2.83;;
11488;SDS011;5801;50.804;12.638;2022-09-01T02:16:25;3.10;;;2.70;;
11488;SDS011;5801;50.804;12.638;2022-09-01T02:18:53;7.95;;;2.67;;
11488;SDS011;5801;50.804;12.638;2022-09-01T02:21:20;7.15;;;3.22;;
11488;SDS011;5801;50.804;12.638;2022-09-01T02:23:48;3.17;;;2.88;;
11488;SDS011;5801;50.804;12.638;2022-09-01T02:26:15;3.92;;;2.55;;
11488;SDS011;5801;50.804;12.638;2022-09-01T02:28:43;2.72;;;2.47;;
11488;SDS011;5801;50.804;12.638;2022-09-01T02:31:10;4.05;;;2.55;;
11488;SDS011;5801;50.804;12.638;2022-09-01T02:33:37;2.78;;;2.33;;
11488;SDS011;5801;50.804;12.638;2022-09-01T02:36:04;3.38;;;2.72;;
11488;SDS011;5801;50.804;12.638;2022-09-01T02:38:32;2.42;;;2.15;;
11488;SDS011;5801;50.804;12.638;2022-09-01T02:40:59;8.10;;;2.40;;
11488;SDS011;5801;50.804;12.638;2022-09-01T02:43:26;4.65;;;2.40;;
11488;SDS011;5801;50.804;12.638;2022-09-01T02:45:54;2.97;;;2.53;;
11488;SDS011;5801;50.804;12.638;2022-09-01T02:48:24;3.22;;;2.63;;
11488;SDS011;5801;50.804;12.638;2022-09-01T02:50:50;3.10;;;2.20;;
11488;SDS011;5801;50.804;12.638;2022-09-01T02:53:17;3.33;;;1.98;;
11488;SDS011;5801;50.804;12.638;2022-09-01T02:55:45;2.50;;;2.20;;
11488;SDS011;5801;50.804;12.638;2022-09-01T02:58:11;3.97;;;2.60;;
11488;SDS011;5801;50.804;12.638;2022-09-01T03:00:40;3.22;;;2.55;;
11488;SDS011;5801;50.804;12.638;2022-09-01T03:03:07;3.65;;;2.50;;
11488;SDS011;5801;50.804;12.638;2022-09-01T03:05:33;4.25;;;2.70;;
11488;SDS011;5801;50.804;12.638;2022-09-01T03:08:02;7.07;;;2.65;;
11488;SDS011;5801;50.804;12.638;2022-09-01T03:10:29;2.70;;;2.42;;
11488;SDS011;5801;50.804;12.638;2022-09-01T03:12:58;3.53;;;2.78;;
11488;SDS011;5801;50.804;12.638;2022-09-01T03:15:25;5.00;;;2.70;;
11488;SDS011;5801;50.804;12.638;2022-09-01T03:17:52;3.55;;;2.50;;
11488;SDS011;5801;50.804;12.638;2022-09-01T03:20:18;2.60;;;2.40;;
11488;SDS011;5801;50.804;12.638;2022-09-01T03:22:45;4.38;;;2.08;;
11488;SDS011;5801;50.804;12.638;2022-09-01T03:25:12;2.20;;;2.00;;
11488;SDS011;5801;50.804;12.638;2022-09-01T03:27:38;12.18;;;2.75;;
11488;SDS011;5801;50.804;12.638;2022-09-01T03:30:04;2.58;;;2.03;;
11488;SDS011;5801;50.804;12.638;2022-09-01T03:32:30;3.03;;;2.60;;
11488;SDS011;5801;50.804;12.638;2022-09-01T03:34:56;2.45;;;2.30;;
11488;SDS011;5801;50.804;12.638;2022-09-01T03:37:23;3.60;;;2.55;;
11488;SDS011;5801;50.804;12.638;2022-09-01T03:39:49;2.47;;;2.28;;
11488;SDS011;5801;50.804;12.638;2022-09-01T03:42:15;3.10;;;2.55;;
11488;SDS011;5801;50.804;12.638;2022-09-01T03:44:49;3.45;;;2.72;;
11488;SDS011;5801;50.804;12.638;2022-09-01T03:47:15;2.75;;;2.53;;
11488;SDS011;5801;50.804;12.638;2022-09-01T03:49:42;2.15;;;1.95;;
11488;SDS011;5801;50.804;12.638;2022-09-01T03:52:09;3.10;;;2.67;;
11488;SDS011;5801;50.804;12.638;2022-09-01T03:54:36;3.15;;;2.53;;
11488;SDS011;5801;50.804;12.638;2022-09-01T03:57:02;2.70;;;2.50;;
11488;SDS011;5801;50.804;12.638;2022-09-01T03:59:30;3.00;;;2.72;;
11488;SDS011;5801;50.804;12.638;2022-09-01T04:01:57;2.88;;;2.58;;
11488;SDS011;5801;50.804;12.638;2022-09-01T04:04:24;3.03;;;2.70;;
11488;SDS011;5801;50.804;12.638;2022-09-01T04:06:50;5.68;;;2.80;;
11488;SDS011;5801;50.804;12.638;2022-09-01T04:09:16;5.50;;;2.78;;
11488;SDS011;5801;50.804;12.638;2022-09-01T04:11:42;2.75;;;2.38;;
11488;SDS011;5801;50.804;12.638;2022-09-01T04:14:10;3.47;;;2.60;;
11488;SDS011;5801;50.804;12.638;2022-09-01T04:16:36;6.07;;;2.88;;
11488;SDS011;5801;50.804;12.638;2022-09-01T04:19:23;5.38;;;2.78;;
11488;SDS011;5801;50.804;12.638;2022-09-01T04:21:51;3.30;;;2.72;;
11488;SDS011;5801;50.804;12.638;2022-09-01T04:24:20;3.95;;;3.42;;
11488;SDS011;5801;50.804;12.638;2022-09-01T04:26:48;5.40;;;2.83;;
11488;SDS011;5801;50.804;12.638;2022-09-01T04:29:15;5.90;;;2.90;;
11488;SDS011;5801;50.804;12.638;2022-09-01T04:31:43;3.63;;;3.13;;
11488;SDS011;5801;50.804;12.638;2022-09-01T04:34:09;4.75;;;3.42;;
11488;SDS011;5801;50.804;12.638;2022-09-01T04:36:41;3.63;;;3.20;;
11488;SDS011;5801;50.804;12.638;2022-09-01T04:39:08;3.88;;;2.83;;
11488;SDS011;5801;50.804;12.638;2022-09-01T04:41:38;3.47;;;2.85;;
11488;SDS011;5801;50.804;12.638;2022-09-01T04:44:05;2.90;;;2.65;;
11488;SDS011;5801;50.804;12.638;2022-09-01T04:46:32;3.22;;;2.65;;
11488;SDS011;5801;50.804;12.638;2022-09-01T04:49:00;2.92;;;2.63;;
11488;SDS011;5801;50.804;12.638;2022-09-01T04:51:30;9.85;;;2.78;;
11488;SDS011;5801;50.804;12.638;2022-09-01T04:53:57;3.25;;;2.85;;
11488;SDS011;5801;50.804;12.638;2022-09-01T04:56:23;3.25;;;2.65;;
11488;SDS011;5801;50.804;12.638;2022-09-01T04:58:50;3.25;;;2.90;;
11488;SDS011;5801;50.804;12.638;2022-09-01T05:01:21;3.22;;;2.90;;
11488;SDS011;5801;50.804;12.638;2022-09-01T05:03:48;4.13;;;3.28;;
11488;SDS011;5801;50.804;12.638;2022-09-01T05:06:25;3.20;;;2.90;;
11488;SDS011;5801;50.804;12.638;2022-09-01T05:08:52;5.78;;;3.25;;
11488;SDS011;5801;50.804;12.638;2022-09-01T05:11:20;4.30;;;3.28;;
11488;SDS011;5801;50.804;12.638;2022-09-01T05:13:48;3.53;;;3.22;;
11488;SDS011;5801;50.804;12.638;2022-09-01T05:16:16;6.63;;;3.50;;
11488;SDS011;5801;50.804;12.638;2022-09-01T05:18:45;5.60;;;3.47;;
11488;SDS011;5801;50.804;12.638;2022-09-01T05:21:13;4.00;;;3.17;;
11488;SDS011;5801;50.804;12.638;2022-09-01T05:23:40;7.15;;;3.83;;
11488;SDS011;5801;50.804;12.638;2022-09-01T05:26:13;5.63;;;3.78;;
11488;SDS011;5801;50.804;12.638;2022-09-01T05:28:41;4.95;;;3.40;;
11488;SDS011;5801;50.804;12.638;2022-09-01T05:31:07;5.18;;;3.65;;
11488;SDS011;5801;50.804;12.638;2022-09-01T05:33:34;6.20;;;3.38;;
11488;SDS011;5801;50.804;12.638;2022-09-01T05:36:01;5.07;;;3.90;;
11488;SDS011;5801;50.804;12.638;2022-09-01T05:38:31;6.93;;;3.45;;
11488;SDS011;5801;50.804;12.638;2022-09-01T05:41:00;4.85;;;4.00;;
11488;SDS011;5801;50.804;12.638;2022-09-01T05:43:28;3.80;;;3.47;;
11488;SDS011;5801;50.804;12.638;2022-09-01T05:45:54;4.68;;;3.22;;
11488;SDS011;5801;50.804;12.638;2022-09-01T05:48:21;4.53;;;3.90;;
11488;SDS011;5801;50.804;12.638;2022-09-01T05:50:48;4.20;;;3.60;;
11488;SDS011;5801;50.804;12.638;2022-09-01T05:53:14;7.15;;;4.40;;
11488;SDS011;5801;50.804;12.638;2022-09-01T05:55:44;5.32;;;3.50;;
11488;SDS011;5801;50.804;12.638;2022-09-01T05:58:14;3.92;;;2.95;;
11488;SDS011;5801;50.804;12.638;2022-09-01T06:00:41;6.57;;;3.60;;
11488;SDS011;5801;50.804;12.638;2022-09-01T06:03:09;3.40;;;2.78;;
11488;SDS011;5801;50.804;12.638;2022-09-01T06:05:35;3.60;;;3.10;;
11488;SDS011;5801;50.804;12.638;2022-09-01T06:08:02;4.15;;;2.92;;
11488;SDS011;5801;50.804;12.638;2022-09-01T06:10:29;3.35;;;2.95;;
11488;SDS011;5801;50.804;12.638;2022-09-01T06:12:56;3.40;;;2.40;;
11488;SDS011;5801;50.804;12.638;2022-09-01T06:15:25;3.10;;;2.58;;
11488;SDS011;5801;50.804;12.638;2022-09-01T06:17:54;3.45;;;2.38;;
11488;SDS011;5801;50.804;12.638;2022-09-01T06:20:20;4.25;;;2.55;;
11488;SDS011;5801;50.804;12.638;2022-09-01T06:22:47;4.63;;;3.10;;
11488;SDS011;5801;50.804;12.638;2022-09-01T06:25:13;4.25;;;3.05;;
11488;SDS011;5801;50.804;12.638;2022-09-01T06:27:41;4.60;;;3.42;;
11488;SDS011;5801;50.804;12.638;2022-09-01T06:30:09;4.05;;;2.85;;
11488;SDS011;5801;50.804;12.638;2022-09-01T06:32:39;6.40;;;2.53;;
11488;SDS011;5801;50.804;12.638;2022-09-01T06:35:07;4.53;;;2.97;;
11488;SDS011;5801;50.804;12.638;2022-09-01T06:37:35;4.40;;;3.65;;
11488;SDS011;5801;50.804;12.638;2022-09-01T06:40:02;3.38;;;3.05;;
11488;SDS011;5801;50.804;12.638;2022-09-01T06:42:28;4.68;;;3.55;;
11488;SDS011;5801;50.804;12.638;2022-09-01T06:44:55;4.57;;;3.58;;
11488;SDS011;5801;50.804;12.638;2022-09-01T06:47:21;4.10;;;3.60;;
11488;SDS011;5801;50.804;12.638;2022-09-01T06:49:48;4.95;;;3.55;;
11488;SDS011;5801;50.804;12.638;2022-09-01T06:52:14;3.65;;;3.25;;
11488;SDS011;5801;50.804;12.638;2022-09-01T06:54:39;6.50;;;3.83;;
11488;SDS011;5801;50.804;12.638;2022-09-01T06:57:07;6.10;;;3.05;;
11488;SDS011;5801;50.804;12.638;2022-09-01T06:59:33;4.40;;;3.33;;
11488;SDS011;5801;50.804;12.638;2022-09-01T07:02:00;4.75;;;3.88;;
11488;SDS011;5801;50.804;12.638;2022-09-01T07:04:27;5.53;;;3.83;;
11488;SDS011;5801;50.804;12.638;2022-09-01T07:06:54;4.05;;;3.33;;
11488;SDS011;5801;50.804;12.638;2022-09-01T07:09:21;8.00;;;3.83;;
11488;SDS011;5801;50.804;12.638;2022-09-01T07:11:47;5.65;;;3.67;;
11488;SDS011;5801;50.804;12.638;2022-09-01T07:14:14;7.00;;;3.55;;
11488;SDS011;5801;50.804;12.638;2022-09-01T07:16:43;5.60;;;3.60;;
11488;SDS011;5801;50.804;12.638;2022-09-01T07:19:11;12.07;;;3.72;;
11488;SDS011;5801;50.804;12.638;2022-09-01T07:21:41;4.72;;;3.35;;
11488;SDS011;5801;50.804;12.638;2022-09-01T07:24:07;10.73;;;3.47;;
11488;SDS011;5801;50.804;12.638;2022-09-01T07:26:34;4.22;;;3.25;;
11488;SDS011;5801;50.804;12.638;2022-09-01T07:29:04;5.22;;;3.28;;
11488;SDS011;5801;50.804;12.638;2022-09-01T07:31:32;3.63;;;3.08;;
11488;SDS011;5801;50.804;12.638;2022-09-01T07:34:03;4.18;;;3.40;;
11488;SDS011;5801;50.804;12.638;2022-09-01T07:36:30;5.65;;;3.10;;
11488;SDS011;5801;50.804;12.638;2022-09-01T07:38:56;5.82;;;3.40;;
11488;SDS011;5801;50.804;12.638;2022-09-01T07:41:24;4.18;;;3.53;;
11488;SDS011;5801;50.804;12.638;2022-09-01T07:43:50;11.55;;;3.05;;
11488;SDS011;5801;50.804;12.638;2022-09-01T07:46:17;3.75;;;3.20;;
11488;SDS011;5801;50.804;12.638;2022-09-01T07:48:43;3.72;;;3.25;;
11488;SDS011;5801;50.804;12.638;2022-09-01T07:51:10;3.30;;;3.00;;
11488;SDS011;5801;50.804;12.638;2022-09-01T07:53:37;7.28;;;3.45;;
11488;SDS011;5801;50.804;12.638;2022-09-01T07:56:07;3.58;;;3.28;;
11488;SDS011;5801;50.804;12.638;2022-09-01T07:58:34;7.38;;;3.70;;
11488;SDS011;5801;50.804;12.638;2022-09-01T08:01:05;4.20;;;3.53;;
11488;SDS011;5801;50.804;12.638;2022-09-01T08:03:32;6.93;;;3.47;;
11488;SDS011;5801;50.804;12.638;2022-09-01T08:06:03;3.90;;;3.15;;
11488;SDS011;5801;50.804;12.638;2022-09-01T08:08:31;3.53;;;3.20;;
11488;SDS011;5801;50.804;12.638;2022-09-01T08:10:57;3.67;;;3.03;;
11488;SDS011;5801;50.804;12.638;2022-09-01T08:13:22;6.20;;;3.08;;
11488;SDS011;5801;50.804;12.638;2022-09-01T08:15:48;4.32;;;3.20;;
11488;SDS011;5801;50.804;12.638;2022-09-01T08:18:14;5.50;;;3.55;;
11488;SDS011;5801;50.804;12.638;2022-09-01T08:20:41;3.22;;;2.88;;
11488;SDS011;5801;50.804;12.638;2022-09-01T08:23:09;2.90;;;2.60;;
11488;SDS011;5801;50.804;12.638;2022-09-01T08:25:37;4.90;;;2.72;;
11488;SDS011;5801;50.804;12.638;2022-09-01T08:28:04;4.03;;;2.72;;
11488;SDS011;5801;50.804;12.638;2022-09-01T08:30:30;3.17;;;2.72;;
11488;SDS011;5801;50.804;12.638;2022-09-01T08:32:56;5.15;;;2.70;;
11488;SDS011;5801;50.804;12.638;2022-09-01T08:35:23;3.60;;;2.63;;
11488;SDS011;5801;50.804;12.638;2022-09-01T08:37:48;4.18;;;2.67;;
11488;SDS011;5801;50.804;12.638;2022-09-01T08:40:15;3.15;;;2.83;;
11488;SDS011;5801;50.804;12.638;2022-09-01T08:50:47;2.88;;;2.28;;
11488;SDS011;5801;50.804;12.638;2022-09-01T08:53:20;4.78;;;2.60;;
11488;SDS011;5801;50.804;12.638;2022-09-01T08:56:05;2.80;;;2.45;;
11488;SDS011;5801;50.804;12.638;2022-09-01T08:58:35;5.38;;;3.13;;
11488;SDS011;5801;50.804;12.638;2022-09-01T09:01:02;4.75;;;2.40;;
11488;SDS011;5801;50.804;12.638;2022-09-01T09:03:41;2.83;;;2.38;;
11488;SDS011;5801;50.804;12.638;2022-09-01T09:06:36;2.65;;;2.00;;
11488;SDS011;5801;50.804;12.638;2022-09-01T09:09:18;3.10;;;2.40;;
11488;SDS011;5801;50.804;12.638;2022-09-01T09:14:53;7.82;;;2.72;;
11488;SDS011;5801;50.804;12.638;2022-09-01T09:17:22;2.40;;;2.08;;
11488;SDS011;5801;50.804;12.638;2022-09-01T09:19:53;6.28;;;2.88;;
11488;SDS011;5801;50.804;12.638;2022-09-01T09:22:19;3.20;;;2.78;;
11488;SDS011;5801;50.804;12.638;2022-09-01T09:27:26;2.60;;;2.33;;
11488;SDS011;5801;50.804;12.638;2022-09-01T09:30:01;4.05;;;2.38;;
11488;SDS011;5801;50.804;12.638;2022-09-01T09:37:49;3.45;;;2.28;;
11488;SDS011;5801;50.804;12.638;2022-09-01T09:40:17;1.92;;;1.73;;
11488;SDS011;5801;50.804;12.638;2022-09-01T09:45:29;2.22;;;1.50;;
11488;SDS011;5801;50.804;12.638;2022-09-01T09:47:57;3.55;;;1.70;;
11488;SDS011;5801;50.804;12.638;2022-09-01T09:50:27;1.50;;;1.23;;
11488;SDS011;5801;50.804;12.638;2022-09-01T09:53:09;2.45;;;1.52;;
11488;SDS011;5801;50.804;12.638;2022-09-01T09:58:44;1.30;;;1.20;;
11488;SDS011;5801;50.804;12.638;2022-09-01T10:03:48;4.68;;;1.10;;
11488;SDS011;5801;50.804;12.638;2022-09-01T10:06:32;4.53;;;1.10;;
11488;SDS011;5801;50.804;12.638;2022-09-01T10:12:04;1.30;;;1.20;;
11488;SDS011;5801;50.804;12.638;2022-09-01T10:14:39;2.83;;;1.25;;
11488;SDS011;5801;50.804;12.638;2022-09-01T10:17:13;1.70;;;1.20;;
11488;SDS011;5801;50.804;12.638;2022-09-01T10:19:47;0.90;;;0.90;;
11488;SDS011;5801;50.804;12.638;2022-09-01T10:22:18;1.75;;;0.88;;
11488;SDS011;5801;50.804;12.638;2022-09-01T10:24:44;0.82;;;0.82;;
11488;SDS011;5801;50.804;12.638;2022-09-01T10:27:21;2.13;;;1.00;;
11488;SDS011;5801;50.804;12.638;2022-09-01T10:29:51;3.20;;;0.90;;
11488;SDS011;5801;50.804;12.638;2022-09-01T10:32:24;2.40;;;1.23;;
11488;SDS011;5801;50.804;12.638;2022-09-01T10:34:54;1.17;;;1.02;;
11488;SDS011;5801;50.804;12.638;2022-09-01T10:37:20;1.20;;;0.90;;
11488;SDS011;5801;50.804;12.638;2022-09-01T10:42:38;3.67;;;1.08;;
11488;SDS011;5801;50.804;12.638;2022-09-01T10:45:06;1.65;;;0.77;;
11488;SDS011;5801;50.804;12.638;2022-09-01T10:47:52;3.63;;;1.02;;
11488;SDS011;5801;50.804;12.638;2022-09-01T10:50:28;2.13;;;1.13;;
11488;SDS011;5801;50.804;12.638;2022-09-01T10:52:57;1.42;;;1.00;;
11488;SDS011;5801;50.804;12.638;2022-09-01T10:55:27;1.10;;;0.80;;
11488;SDS011;5801;50.804;12.638;2022-09-01T10:57:58;1.60;;;1.23;;
11488;SDS011;5801;50.804;12.638;2022-09-01T11:00:44;3.72;;;1.10;;
11488;SDS011;5801;50.804;12.638;2022-09-01T11:08:39;1.10;;;1.00;;
11488;SDS011;5801;50.804;12.638;2022-09-01T11:11:42;2.55;;;0.90;;
11488;SDS011;5801;50.804;12.638;2022-09-01T11:14:16;3.92;;;0.90;;
11488;SDS011;5801;50.804;12.638;2022-09-01T11:17:09;1.15;;;0.73;;
11488;SDS011;5801;50.804;12.638;2022-09-01T11:19:39;2.55;;;0.93;;
11488;SDS011;5801;50.804;12.638;2022-09-01T11:25:11;0.60;;;0.60;;
11488;SDS011;5801;50.804;12.638;2022-09-01T11:30:33;3.75;;;1.00;;
11488;SDS011;5801;50.804;12.638;2022-09-01T11:35:42;2.35;;;1.20;;
11488;SDS011;5801;50.804;12.638;2022-09-01T11:38:11;1.27;;;1.00;;
11488;SDS011;5801;50.804;12.638;2022-09-01T11:40:40;0.98;;;0.65;;
11488;SDS011;5801;50.804;12.638;2022-09-01T11:43:08;1.90;;;0.98;;
11488;SDS011;5801;50.804;12.638;2022-09-01T11:45:49;1.40;;;0.80;;
11488;SDS011;5801;50.804;12.638;2022-09-01T11:48:25;1.17;;;0.95;;
11488;SDS011;5801;50.804;12.638;2022-09-01T11:50:56;1.50;;;0.90;;
11488;SDS011;5801;50.804;12.638;2022-09-01T11:53:23;0.93;;;0.93;;
11488;SDS011;5801;50.804;12.638;2022-09-01T11:55:51;2.50;;;0.77;;
11488;SDS011;5801;50.804;12.638;2022-09-01T12:00:51;2.47;;;0.95;;
11488;SDS011;5801;50.804;12.638;2022-09-01T12:03:22;0.63;;;0.63;;
11488;SDS011;5801;50.804;12.638;2022-09-01T12:05:51;0.93;;;0.65;;
11488;SDS011;5801;50.804;12.638;2022-09-01T12:08:23;1.90;;;1.02;;
11488;SDS011;5801;50.804;12.638;2022-09-01T12:10:59;1.58;;;0.77;;
11488;SDS011;5801;50.804;12.638;2022-09-01T12:13:31;0.80;;;0.75;;
11488;SDS011;5801;50.804;12.638;2022-09-01T12:16:01;0.68;;;0.68;;
11488;SDS011;5801;50.804;12.638;2022-09-01T12:18:31;1.45;;;1.00;;
11488;SDS011;5801;50.804;12.638;2022-09-01T12:21:00;0.63;;;0.63;;
11488;SDS011;5801;50.804;12.638;2022-09-01T12:23:29;3.80;;;1.00;;
11488;SDS011;5801;50.804;12.638;2022-09-01T12:25:58;2.55;;;0.95;;
11488;SDS011;5801;50.804;12.638;2022-09-01T12:28:27;4.60;;;0.98;;
11488;SDS011;5801;50.804;12.638;2022-09-01T12:30:55;2.33;;;1.17;;
11488;SDS011;5801;50.804;12.638;2022-09-01T12:33:22;1.73;;;0.82;;
11488;SDS011;5801;50.804;12.638;2022-09-01T12:35:48;1.48;;;1.08;;
11488;SDS011;5801;50.804;12.638;2022-09-01T12:40:42;1.65;;;1.00;;
11488;SDS011;5801;50.804;12.638;2022-09-01T12:43:09;3.78;;;1.38;;
11488;SDS011;5801;50.804;12.638;2022-09-01T12:45:36;4.72;;;1.20;;
11488;SDS011;5801;50.804;12.638;2022-09-01T12:48:04;2.17;;;1.33;;
11488;SDS011;5801;50.804;12.638;2022-09-01T12:50:32;1.75;;;1.05;;
11488;SDS011;5801;50.804;12.638;2022-09-01T12:53:00;3.50;;;0.95;;
11488;SDS011;5801;50.804;12.638;2022-09-01T12:55:27;0.82;;;0.82;;
11488;SDS011;5801;50.804;12.638;2022-09-01T12:57:59;0.98;;;0.88;;
11488;SDS011;5801;50.804;12.638;2022-09-01T13:00:31;1.35;;;0.93;;
11488;SDS011;5801;50.804;12.638;2022-09-01T13:08:08;8.77;;;1.23;;
11488;SDS011;5801;50.804;12.638;2022-09-01T13:10:36;3.97;;;1.00;;
11488;SDS011;5801;50.804;12.638;2022-09-01T13:13:07;3.65;;;1.20;;
11488;SDS011;5801;50.804;12.638;2022-09-01T13:15:35;0.80;;;0.80;;
11488;SDS011;5801;50.804;12.638;2022-09-01T13:18:02;3.35;;;0.90;;
11488;SDS011;5801;50.804;12.638;2022-09-01T13:20:27;1.10;;;0.85;;
11488;SDS011;5801;50.804;12.638;2022-09-01T13:22:53;3.00;;;1.00;;
11488;SDS011;5801;50.804;12.638;2022-09-01T13:25:20;5.65;;;1.08;;
11488;SDS011;5801;50.804;12.638;2022-09-01T13:27:46;1.00;;;0.90;;
11488;SDS011;5801;50.804;12.638;2022-09-01T13:30:14;1.13;;;0.85;;
11488;SDS011;5801;50.804;12.638;2022-09-01T13:32:42;1.75;;;0.85;;
11488;SDS011;5801;50.804;12.638;2022-09-01T13:35:09;0.60;;;0.60;;
11488;SDS011;5801;50.804;12.638;2022-09-01T13:37:36;1.73;;;1.05;;
11488;SDS011;5801;50.804;12.638;2022-09-01T13:40:02;1.63;;;0.85;;
11488;SDS011;5801;50.804;12.638;2022-09-01T13:42:31;1.38;;;0.73;;
11488;SDS011;5801;50.804;12.638;2022-09-01T13:44:57;1.63;;;1.00;;
11488;SDS011;5801;50.804;12.638;2022-09-01T13:47:23;1.55;;;1.08;;
11488;SDS011;5801;50.804;12.638;2022-09-01T13:49:49;1.67;;;0.85;;
11488;SDS011;5801;50.804;12.638;2022-09-01T13:52:15;1.25;;;0.80;;
11488;SDS011;5801;50.804;12.638;2022-09-01T13:54:41;1.95;;;0.90;;
11488;SDS011;5801;50.804;12.638;2022-09-01T13:57:08;1.20;;;0.82;;
11488;SDS011;5801;50.804;12.638;2022-09-01T13:59:35;3.47;;;0.70;;
11488;SDS011;5801;50.804;12.638;2022-09-01T14:02:01;0.65;;;0.65;;
11488;SDS011;5801;50.804;12.638;2022-09-01T14:04:27;1.20;;;0.77;;
11488;SDS011;5801;50.804;12.638;2022-09-01T14:06:53;2.55;;;0.70;;
11488;SDS011;5801;50.804;12.638;2022-09-01T14:09:19;1.92;;;0.60;;
11488;SDS011;5801;50.804;12.638;2022-09-01T14:11:44;1.15;;;0.70;;
11488;SDS011;5801;50.804;12.638;2022-09-01T14:14:10;1.05;;;0.70;;
11488;SDS011;5801;50.804;12.638;2022-09-01T14:16:36;2.30;;;0.85;;
11488;SDS011;5801;50.804;12.638;2022-09-01T14:19:02;5.95;;;0.90;;
11488;SDS011;5801;50.804;12.638;2022-09-01T14:21:28;1.33;;;0.88;;
11488;SDS011;5801;50.804;12.638;2022-09-01T14:23:54;1.33;;;0.85;;
11488;SDS011;5801;50.804;12.638;2022-09-01T14:26:20;1.63;;;0.85;;
11488;SDS011;5801;50.804;12.638;2022-09-01T14:28:47;1.05;;;0.77;;
11488;SDS011;5801;50.804;12.638;2022-09-01T14:31:15;1.85;;;1.00;;
11488;SDS011;5801;50.804;12.638;2022-09-01T14:33:42;1.00;;;0.70;;
11488;SDS011;5801;50.804;12.638;2022-09-01T14:36:15;0.73;;;0.73;;
11488;SDS011;5801;50.804;12.638;2022-09-01T14:38:46;2.35;;;1.23;;
11488;SDS011;5801;50.804;12.638;2022-09-01T14:41:13;6.00;;;1.00;;
11488;SDS011;5801;50.804;12.638;2022-09-01T14:43:39;1.38;;;0.80;;
11488;SDS011;5801;50.804;12.638;2022-09-01T14:46:07;1.25;;;1.10;;
11488;SDS011;5801;50.804;12.638;2022-09-01T14:48:35;1.33;;;1.10;;
11488;SDS011;5801;50.804;12.638;2022-09-01T14:51:01;1.25;;;0.80;;
11488;SDS011;5801;50.804;12.638;2022-09-01T14:53:27;1.13;;;1.02;;
11488;SDS011;5801;50.804;12.638;2022-09-01T14:55:55;3.83;;;1.20;;
11488;SDS011;5801;50.804;12.638;2022-09-01T14:58:21;1.48;;;1.10;;
11488;SDS011;5801;50.804;12.638;2022-09-01T15:00:47;1.85;;;1.10;;
11488;SDS011;5801;50.804;12.638;2022-09-01T15:03:13;2.20;;;1.20;;
11488;SDS011;5801;50.804;12.638;2022-09-01T15:05:39;1.50;;;0.98;;
11488;SDS011;5801;50.804;12.638;2022-09-01T15:08:05;2.30;;;0.98;;
11488;SDS011;5801;50.804;12.638;2022-09-01T15:10:31;4.88;;;1.00;;
11488;SDS011;5801;50.804;12.638;2022-09-01T15:12:59;1.10;;;0.82;;
11488;SDS011;5801;50.804;12.638;2022-09-01T15:15:25;1.20;;;1.08;;
11488;SDS011;5801;50.804;12.638;2022-09-01T15:17:52;1.15;;;0.90;;
11488;SDS011;5801;50.804;12.638;2022-09-01T15:20:18;0.93;;;0.70;;
11488;SDS011;5801;50.804;12.638;2022-09-01T15:23:03;0.93;;;0.82;;
11488;SDS011;5801;50.804;12.638;2022-09-01T15:25:29;0.77;;;0.73;;
11488;SDS011;5801;50.804;12.638;2022-09-01T15:27:55;3.17;;;0.80;;
11488;SDS011;5801;50.804;12.638;2022-09-01T15:30:21;1.60;;;1.05;;
11488;SDS011;5801;50.804;12.638;2022-09-01T15:32:48;0.73;;;0.70;;
11488;SDS011;5801;50.804;12.638;2022-09-01T15:35:15;0.82;;;0.80;;
11488;SDS011;5801;50.804;12.638;2022-09-01T15:37:41;1.65;;;0.90;;
11488;SDS011;5801;50.804;12.638;2022-09-01T15:40:08;2.40;;;1.08;;
11488;SDS011;5801;50.804;12.638;2022-09-01T15:42:34;0.80;;;0.68;;
11488;SDS011;5801;50.804;12.638;2022-09-01T15:45:02;1.95;;;1.10;;
11488;SDS011;5801;50.804;12.638;2022-09-01T15:47:29;2.80;;;0.90;;
11488;SDS011;5801;50.804;12.638;2022-09-01T15:49:55;0.90;;;0.90;;
11488;SDS011;5801;50.804;12.638;2022-09-01T15:52:21;2.97;;;1.30;;